sensor_id;sensor_type;location;lat;lon;timestamp;P1;durP1;ratioP1;P2;durP2;ratioP2
62584;SDS011;48643;51.670;5.808;2023-04-27T00:01:11;5.85;;;3.30;;
62584;SDS011;48643;51.670;5.808;2023-04-27T00:03:39;7.00;;;3.30;;
62584;SDS011;48643;51.670;5.808;2023-04-27T00:06:07;7.75;;;3.50;;
62584;SDS011;48643;51.670;5.808;2023-04-27T00:08:35;5.20;;;3.35;;
62584;SDS011;48643;51.670;5.808;2023-04-27T00:11:02;4.82;;;3.50;;
62584;SDS011;48643;51.670;5.808;2023-04-27T00:13:29;9.20;;;3.60;;
62584;SDS011;48643;51.670;5.808;2023-04-27T00:15:56;6.28;;;3.50;;
62584;SDS011;48643;51.670;5.808;2023-04-27T00:18:22;6.97;;;3.30;;
62584;SDS011;48643;51.670;5.808;2023-04-27T00:20:49;6.55;;;3.30;;
62584;SDS011;48643;51.670;5.808;2023-04-27T00:23:16;5.90;;;3.42;;
62584;SDS011;48643;51.670;5.808;2023-04-27T00:25:43;5.55;;;3.20;;
62584;SDS011;48643;51.670;5.808;2023-04-27T00:28:10;6.25;;;3.55;;
62584;SDS011;48643;51.670;5.808;2023-04-27T00:30:36;5.95;;;3.30;;
62584;SDS011;48643;51.670;5.808;2023-04-27T00:33:03;6.22;;;3.40;;
62584;SDS011;48643;51.670;5.808;2023-04-27T00:35:31;6.07;;;3.33;;
62584;SDS011;48643;51.670;5.808;2023-04-27T00:37:58;6.80;;;3.38;;
62584;SDS011;48643;51.670;5.808;2023-04-27T00:40:25;5.43;;;3.10;;
62584;SDS011;48643;51.670;5.808;2023-04-27T00:42:52;5.30;;;3.20;;
62584;SDS011;48643;51.670;5.808;2023-04-27T00:45:19;5.50;;;3.30;;
62584;SDS011;48643;51.670;5.808;2023-04-27T00:47:45;5.88;;;3.28;;
62584;SDS011;48643;51.670;5.808;2023-04-27T00:50:12;5.60;;;3.00;;
62584;SDS011;48643;51.670;5.808;2023-04-27T00:52:40;5.63;;;3.30;;
62584;SDS011;48643;51.670;5.808;2023-04-27T00:55:07;5.60;;;3.38;;
62584;SDS011;48643;51.670;5.808;2023-04-27T00:57:34;6.28;;;3.25;;
62584;SDS011;48643;51.670;5.808;2023-04-27T01:00:02;4.88;;;3.35;;
62584;SDS011;48643;51.670;5.808;2023-04-27T01:02:32;4.80;;;3.30;;
62584;SDS011;48643;51.670;5.808;2023-04-27T01:05:01;6.25;;;3.10;;
62584;SDS011;48643;51.670;5.808;2023-04-27T01:07:28;6.20;;;3.35;;
62584;SDS011;48643;51.670;5.808;2023-04-27T01:09:56;4.75;;;3.05;;
62584;SDS011;48643;51.670;5.808;2023-04-27T01:12:23;6.95;;;3.00;;
62584;SDS011;48643;51.670;5.808;2023-04-27T01:14:50;6.38;;;3.10;;
62584;SDS011;48643;51.670;5.808;2023-04-27T01:17:17;5.63;;;3.50;;
62584;SDS011;48643;51.670;5.808;2023-04-27T01:19:43;6.57;;;3.30;;
62584;SDS011;48643;51.670;5.808;2023-04-27T01:22:11;6.15;;;3.45;;
62584;SDS011;48643;51.670;5.808;2023-04-27T01:24:40;4.88;;;3.35;;
62584;SDS011;48643;51.670;5.808;2023-04-27T01:27:07;5.18;;;3.05;;
62584;SDS011;48643;51.670;5.808;2023-04-27T01:29:35;5.32;;;3.20;;
62584;SDS011;48643;51.670;5.808;2023-04-27T01:32:03;6.10;;;3.30;;
62584;SDS011;48643;51.670;5.808;2023-04-27T01:34:30;5.43;;;3.17;;
62584;SDS011;48643;51.670;5.808;2023-04-27T01:36:56;5.35;;;3.03;;
62584;SDS011;48643;51.670;5.808;2023-04-27T01:39:23;6.50;;;3.22;;
62584;SDS011;48643;51.670;5.808;2023-04-27T01:41:50;6.40;;;3.33;;
62584;SDS011;48643;51.670;5.808;2023-04-27T01:44:17;5.07;;;3.20;;
62584;SDS011;48643;51.670;5.808;2023-04-27T01:46:46;6.72;;;3.15;;
62584;SDS011;48643;51.670;5.808;2023-04-27T01:49:13;7.85;;;3.50;;
62584;SDS011;48643;51.670;5.808;2023-04-27T01:51:40;5.55;;;3.20;;
62584;SDS011;48643;51.670;5.808;2023-04-27T01:54:07;6.53;;;3.13;;
62584;SDS011;48643;51.670;5.808;2023-04-27T01:56:34;5.35;;;3.25;;
62584;SDS011;48643;51.670;5.808;2023-04-27T01:59:01;6.50;;;3.22;;
62584;SDS011;48643;51.670;5.808;2023-04-27T02:01:28;4.97;;;3.10;;
62584;SDS011;48643;51.670;5.808;2023-04-27T02:03:56;7.43;;;3.20;;
62584;SDS011;48643;51.670;5.808;2023-04-27T02:06:23;4.80;;;3.10;;
62584;SDS011;48643;51.670;5.808;2023-04-27T02:08:50;4.85;;;3.10;;
62584;SDS011;48643;51.670;5.808;2023-04-27T02:11:17;4.85;;;3.25;;
62584;SDS011;48643;51.670;5.808;2023-04-27T02:13:44;5.32;;;3.00;;
62584;SDS011;48643;51.670;5.808;2023-04-27T02:16:11;7.72;;;3.33;;
62584;SDS011;48643;51.670;5.808;2023-04-27T02:18:38;4.82;;;3.00;;
62584;SDS011;48643;51.670;5.808;2023-04-27T02:21:08;4.50;;;3.28;;
62584;SDS011;48643;51.670;5.808;2023-04-27T02:23:36;7.80;;;3.28;;
62584;SDS011;48643;51.670;5.808;2023-04-27T02:26:03;5.35;;;3.15;;
62584;SDS011;48643;51.670;5.808;2023-04-27T02:28:30;4.75;;;3.40;;
62584;SDS011;48643;51.670;5.808;2023-04-27T02:30:59;5.38;;;3.10;;
62584;SDS011;48643;51.670;5.808;2023-04-27T02:33:26;5.28;;;2.90;;
62584;SDS011;48643;51.670;5.808;2023-04-27T02:35:53;7.05;;;3.30;;
62584;SDS011;48643;51.670;5.808;2023-04-27T02:38:20;4.18;;;3.10;;
62584;SDS011;48643;51.670;5.808;2023-04-27T02:40:51;4.60;;;3.20;;
62584;SDS011;48643;51.670;5.808;2023-04-27T02:43:19;4.63;;;3.05;;
62584;SDS011;48643;51.670;5.808;2023-04-27T02:45:46;4.95;;;3.17;;
62584;SDS011;48643;51.670;5.808;2023-04-27T02:48:13;6.28;;;3.38;;
62584;SDS011;48643;51.670;5.808;2023-04-27T02:50:40;6.10;;;3.60;;
62584;SDS011;48643;51.670;5.808;2023-04-27T02:53:10;6.97;;;3.50;;
62584;SDS011;48643;51.670;5.808;2023-04-27T02:55:37;6.65;;;3.58;;
62584;SDS011;48643;51.670;5.808;2023-04-27T02:58:10;7.20;;;3.60;;
62584;SDS011;48643;51.670;5.808;2023-04-27T03:00:38;5.97;;;3.58;;
62584;SDS011;48643;51.670;5.808;2023-04-27T03:03:06;10.20;;;3.88;;
62584;SDS011;48643;51.670;5.808;2023-04-27T03:05:33;5.80;;;3.53;;
62584;SDS011;48643;51.670;5.808;2023-04-27T03:08:00;7.63;;;3.60;;
62584;SDS011;48643;51.670;5.808;2023-04-27T03:10:28;6.57;;;3.60;;
62584;SDS011;48643;51.670;5.808;2023-04-27T03:12:55;8.32;;;3.60;;
62584;SDS011;48643;51.670;5.808;2023-04-27T03:15:22;4.88;;;3.40;;
62584;SDS011;48643;51.670;5.808;2023-04-27T03:17:48;7.07;;;3.90;;
62584;SDS011;48643;51.670;5.808;2023-04-27T03:20:15;5.70;;;3.67;;
62584;SDS011;48643;51.670;5.808;2023-04-27T03:22:44;6.05;;;3.70;;
62584;SDS011;48643;51.670;5.808;2023-04-27T03:25:11;9.23;;;3.50;;
62584;SDS011;48643;51.670;5.808;2023-04-27T03:27:37;5.47;;;3.53;;
62584;SDS011;48643;51.670;5.808;2023-04-27T03:30:05;5.55;;;3.70;;
62584;SDS011;48643;51.670;5.808;2023-04-27T03:32:33;6.22;;;3.60;;
62584;SDS011;48643;51.670;5.808;2023-04-27T03:34:59;5.63;;;3.70;;
62584;SDS011;48643;51.670;5.808;2023-04-27T03:37:26;5.65;;;3.60;;
62584;SDS011;48643;51.670;5.808;2023-04-27T03:39:54;6.43;;;3.60;;
62584;SDS011;48643;51.670;5.808;2023-04-27T03:42:22;5.05;;;3.30;;
62584;SDS011;48643;51.670;5.808;2023-04-27T03:44:49;4.05;;;3.28;;
62584;SDS011;48643;51.670;5.808;2023-04-27T03:47:16;5.32;;;3.50;;
62584;SDS011;48643;51.670;5.808;2023-04-27T03:49:43;6.85;;;3.70;;
62584;SDS011;48643;51.670;5.808;2023-04-27T03:52:10;5.22;;;3.42;;
62584;SDS011;48643;51.670;5.808;2023-04-27T03:54:37;6.47;;;3.45;;
62584;SDS011;48643;51.670;5.808;2023-04-27T03:57:04;5.72;;;3.35;;
62584;SDS011;48643;51.670;5.808;2023-04-27T03:59:30;4.63;;;3.50;;
62584;SDS011;48643;51.670;5.808;2023-04-27T04:01:57;6.28;;;3.70;;
62584;SDS011;48643;51.670;5.808;2023-04-27T04:04:26;7.38;;;3.47;;
62584;SDS011;48643;51.670;5.808;2023-04-27T04:06:53;6.72;;;3.90;;
62584;SDS011;48643;51.670;5.808;2023-04-27T04:09:21;4.47;;;3.25;;
62584;SDS011;48643;51.670;5.808;2023-04-27T04:11:50;6.25;;;3.60;;
62584;SDS011;48643;51.670;5.808;2023-04-27T04:14:17;5.53;;;3.55;;
62584;SDS011;48643;51.670;5.808;2023-04-27T04:16:44;6.03;;;3.50;;
62584;SDS011;48643;51.670;5.808;2023-04-27T04:19:12;6.32;;;3.45;;
62584;SDS011;48643;51.670;5.808;2023-04-27T04:21:40;6.32;;;3.80;;
62584;SDS011;48643;51.670;5.808;2023-04-27T04:24:07;6.65;;;3.25;;
62584;SDS011;48643;51.670;5.808;2023-04-27T04:26:35;6.63;;;3.42;;
62584;SDS011;48643;51.670;5.808;2023-04-27T04:29:03;6.15;;;3.53;;
62584;SDS011;48643;51.670;5.808;2023-04-27T04:31:31;7.13;;;3.90;;
62584;SDS011;48643;51.670;5.808;2023-04-27T04:34:01;7.32;;;3.90;;
62584;SDS011;48643;51.670;5.808;2023-04-27T04:36:28;5.18;;;3.67;;
62584;SDS011;48643;51.670;5.808;2023-04-27T04:38:56;4.95;;;3.50;;
62584;SDS011;48643;51.670;5.808;2023-04-27T04:41:24;5.25;;;3.33;;
62584;SDS011;48643;51.670;5.808;2023-04-27T04:43:51;4.60;;;3.38;;
62584;SDS011;48643;51.670;5.808;2023-04-27T04:46:18;5.18;;;3.47;;
62584;SDS011;48643;51.670;5.808;2023-04-27T04:48:45;7.35;;;3.47;;
62584;SDS011;48643;51.670;5.808;2023-04-27T04:51:12;5.63;;;3.75;;
62584;SDS011;48643;51.670;5.808;2023-04-27T04:53:39;6.90;;;3.40;;
62584;SDS011;48643;51.670;5.808;2023-04-27T04:58:37;7.00;;;3.70;;
62584;SDS011;48643;51.670;5.808;2023-04-27T05:01:04;6.30;;;3.58;;
62584;SDS011;48643;51.670;5.808;2023-04-27T05:03:32;8.30;;;3.67;;
62584;SDS011;48643;51.670;5.808;2023-04-27T05:05:59;5.55;;;3.40;;
62584;SDS011;48643;51.670;5.808;2023-04-27T05:08:26;6.72;;;3.67;;
62584;SDS011;48643;51.670;5.808;2023-04-27T05:10:53;9.98;;;3.83;;
62584;SDS011;48643;51.670;5.808;2023-04-27T05:13:20;5.63;;;3.60;;
62584;SDS011;48643;51.670;5.808;2023-04-27T05:15:47;5.22;;;3.60;;
62584;SDS011;48643;51.670;5.808;2023-04-27T05:18:13;6.22;;;3.38;;
62584;SDS011;48643;51.670;5.808;2023-04-27T05:20:40;7.30;;;3.63;;
62584;SDS011;48643;51.670;5.808;2023-04-27T05:23:07;5.43;;;3.40;;
62584;SDS011;48643;51.670;5.808;2023-04-27T05:25:36;6.00;;;3.70;;
62584;SDS011;48643;51.670;5.808;2023-04-27T05:28:07;6.35;;;3.50;;
62584;SDS011;48643;51.670;5.808;2023-04-27T05:30:35;5.90;;;3.92;;
62584;SDS011;48643;51.670;5.808;2023-04-27T05:33:02;6.03;;;3.72;;
62584;SDS011;48643;51.670;5.808;2023-04-27T05:35:29;5.63;;;3.50;;
62584;SDS011;48643;51.670;5.808;2023-04-27T05:37:56;5.57;;;3.58;;
62584;SDS011;48643;51.670;5.808;2023-04-27T05:40:23;5.90;;;3.47;;
62584;SDS011;48643;51.670;5.808;2023-04-27T05:42:50;6.13;;;3.80;;
62584;SDS011;48643;51.670;5.808;2023-04-27T05:45:17;7.25;;;3.55;;
62584;SDS011;48643;51.670;5.808;2023-04-27T05:47:44;7.07;;;3.60;;
62584;SDS011;48643;51.670;5.808;2023-04-27T05:50:11;5.78;;;3.35;;
62584;SDS011;48643;51.670;5.808;2023-04-27T05:52:38;9.27;;;3.50;;
62584;SDS011;48643;51.670;5.808;2023-04-27T05:55:05;8.38;;;3.65;;
62584;SDS011;48643;51.670;5.808;2023-04-27T05:57:33;5.78;;;3.25;;
62584;SDS011;48643;51.670;5.808;2023-04-27T06:00:00;5.28;;;3.45;;
62584;SDS011;48643;51.670;5.808;2023-04-27T06:02:37;10.13;;;3.60;;
62584;SDS011;48643;51.670;5.808;2023-04-27T06:05:04;7.60;;;3.78;;
62584;SDS011;48643;51.670;5.808;2023-04-27T06:07:32;6.20;;;3.65;;
62584;SDS011;48643;51.670;5.808;2023-04-27T06:09:59;5.50;;;3.50;;
62584;SDS011;48643;51.670;5.808;2023-04-27T06:12:25;9.00;;;3.65;;
62584;SDS011;48643;51.670;5.808;2023-04-27T06:14:52;13.18;;;5.72;;
62584;SDS011;48643;51.670;5.808;2023-04-27T06:17:20;10.55;;;6.72;;
62584;SDS011;48643;51.670;5.808;2023-04-27T06:19:47;15.77;;;6.47;;
62584;SDS011;48643;51.670;5.808;2023-04-27T06:22:13;18.42;;;7.28;;
62584;SDS011;48643;51.670;5.808;2023-04-27T06:24:40;12.85;;;6.90;;
62584;SDS011;48643;51.670;5.808;2023-04-27T06:27:07;17.35;;;6.30;;
62584;SDS011;48643;51.670;5.808;2023-04-27T06:29:34;12.95;;;5.60;;
62584;SDS011;48643;51.670;5.808;2023-04-27T06:32:02;13.98;;;6.25;;
62584;SDS011;48643;51.670;5.808;2023-04-27T06:34:32;10.70;;;5.90;;
62584;SDS011;48643;51.670;5.808;2023-04-27T06:36:59;12.18;;;5.65;;
62584;SDS011;48643;51.670;5.808;2023-04-27T06:39:26;9.63;;;5.38;;
62584;SDS011;48643;51.670;5.808;2023-04-27T06:41:53;8.73;;;5.30;;
62584;SDS011;48643;51.670;5.808;2023-04-27T06:44:20;10.38;;;5.30;;
62584;SDS011;48643;51.670;5.808;2023-04-27T06:46:46;10.70;;;5.20;;
62584;SDS011;48643;51.670;5.808;2023-04-27T06:49:13;11.18;;;5.05;;
62584;SDS011;48643;51.670;5.808;2023-04-27T06:51:41;10.18;;;5.50;;
62584;SDS011;48643;51.670;5.808;2023-04-27T06:54:08;8.75;;;4.60;;
62584;SDS011;48643;51.670;5.808;2023-04-27T06:56:34;8.88;;;4.55;;
62584;SDS011;48643;51.670;5.808;2023-04-27T06:59:01;7.03;;;4.88;;
62584;SDS011;48643;51.670;5.808;2023-04-27T07:01:28;9.90;;;4.30;;
62584;SDS011;48643;51.670;5.808;2023-04-27T07:03:55;7.10;;;4.28;;
62584;SDS011;48643;51.670;5.808;2023-04-27T07:06:22;8.05;;;4.25;;
62584;SDS011;48643;51.670;5.808;2023-04-27T07:08:51;9.25;;;4.03;;
62584;SDS011;48643;51.670;5.808;2023-04-27T07:11:18;6.00;;;3.85;;
62584;SDS011;48643;51.670;5.808;2023-04-27T07:13:45;11.15;;;4.05;;
62584;SDS011;48643;51.670;5.808;2023-04-27T07:16:13;7.10;;;3.90;;
62584;SDS011;48643;51.670;5.808;2023-04-27T07:18:41;6.68;;;3.90;;
62584;SDS011;48643;51.670;5.808;2023-04-27T07:21:09;7.88;;;3.92;;
62584;SDS011;48643;51.670;5.808;2023-04-27T07:23:37;8.15;;;3.72;;
62584;SDS011;48643;51.670;5.808;2023-04-27T07:26:06;9.88;;;3.50;;
62584;SDS011;48643;51.670;5.808;2023-04-27T07:28:35;7.95;;;3.92;;
62584;SDS011;48643;51.670;5.808;2023-04-27T07:31:03;6.75;;;3.50;;
62584;SDS011;48643;51.670;5.808;2023-04-27T07:33:32;6.20;;;3.47;;
62584;SDS011;48643;51.670;5.808;2023-04-27T07:35:59;7.50;;;3.28;;
62584;SDS011;48643;51.670;5.808;2023-04-27T07:38:27;9.70;;;3.60;;
62584;SDS011;48643;51.670;5.808;2023-04-27T07:40:56;5.25;;;3.25;;
62584;SDS011;48643;51.670;5.808;2023-04-27T07:43:24;7.03;;;3.25;;
62584;SDS011;48643;51.670;5.808;2023-04-27T07:45:51;5.93;;;3.10;;
62584;SDS011;48643;51.670;5.808;2023-04-27T07:48:20;4.50;;;2.80;;
62584;SDS011;48643;51.670;5.808;2023-04-27T07:50:48;5.03;;;2.92;;
62584;SDS011;48643;51.670;5.808;2023-04-27T07:53:14;3.47;;;2.72;;
62584;SDS011;48643;51.670;5.808;2023-04-27T07:55:41;4.50;;;2.80;;
62584;SDS011;48643;51.670;5.808;2023-04-27T07:58:11;7.28;;;2.95;;
62584;SDS011;48643;51.670;5.808;2023-04-27T08:00:38;7.18;;;2.90;;
62584;SDS011;48643;51.670;5.808;2023-04-27T08:03:05;6.85;;;3.22;;
62584;SDS011;48643;51.670;5.808;2023-04-27T08:05:33;10.57;;;5.53;;
62584;SDS011;48643;51.670;5.808;2023-04-27T08:08:01;4.78;;;2.60;;
62584;SDS011;48643;51.670;5.808;2023-04-27T08:10:28;6.38;;;2.67;;
62584;SDS011;48643;51.670;5.808;2023-04-27T08:12:54;8.80;;;5.53;;
62584;SDS011;48643;51.670;5.808;2023-04-27T08:15:21;5.32;;;2.50;;
62584;SDS011;48643;51.670;5.808;2023-04-27T08:17:48;6.22;;;2.90;;
62584;SDS011;48643;51.670;5.808;2023-04-27T08:20:15;6.60;;;2.45;;
62584;SDS011;48643;51.670;5.808;2023-04-27T08:22:42;5.88;;;2.35;;
62584;SDS011;48643;51.670;5.808;2023-04-27T08:25:09;7.38;;;2.63;;
62584;SDS011;48643;51.670;5.808;2023-04-27T08:27:36;6.55;;;2.50;;
62584;SDS011;48643;51.670;5.808;2023-04-27T08:30:04;7.60;;;2.70;;
62584;SDS011;48643;51.670;5.808;2023-04-27T08:32:31;7.30;;;5.60;;
62584;SDS011;48643;51.670;5.808;2023-04-27T08:34:58;8.20;;;4.90;;
62584;SDS011;48643;51.670;5.808;2023-04-27T08:37:25;7.43;;;4.78;;
62584;SDS011;48643;51.670;5.808;2023-04-27T08:39:51;10.90;;;8.35;;
62584;SDS011;48643;51.670;5.808;2023-04-27T08:42:18;11.73;;;7.60;;
62584;SDS011;48643;51.670;5.808;2023-04-27T08:44:45;8.60;;;7.80;;
62584;SDS011;48643;51.670;5.808;2023-04-27T08:47:12;7.03;;;6.20;;
62584;SDS011;48643;51.670;5.808;2023-04-27T08:49:39;7.03;;;6.32;;
62584;SDS011;48643;51.670;5.808;2023-04-27T08:54:37;8.50;;;3.00;;
62584;SDS011;48643;51.670;5.808;2023-04-27T08:57:11;7.00;;;4.70;;
62584;SDS011;48643;51.670;5.808;2023-04-27T08:59:39;6.55;;;5.20;;
62584;SDS011;48643;51.670;5.808;2023-04-27T09:02:16;4.97;;;2.67;;
62584;SDS011;48643;51.670;5.808;2023-04-27T09:04:45;5.33;;;3.50;;
62584;SDS011;48643;51.670;5.808;2023-04-27T09:07:13;6.05;;;2.40;;
62584;SDS011;48643;51.670;5.808;2023-04-27T09:09:40;7.20;;;2.72;;
62584;SDS011;48643;51.670;5.808;2023-04-27T09:12:15;3.85;;;1.95;;
62584;SDS011;48643;51.670;5.808;2023-04-27T09:14:57;7.97;;;6.40;;
62584;SDS011;48643;51.670;5.808;2023-04-27T09:17:28;7.68;;;4.30;;
62584;SDS011;48643;51.670;5.808;2023-04-27T09:20:03;4.63;;;2.20;;
62584;SDS011;48643;51.670;5.808;2023-04-27T09:22:45;7.88;;;7.07;;
62584;SDS011;48643;51.670;5.808;2023-04-27T09:25:29;7.50;;;3.60;;
62584;SDS011;48643;51.670;5.808;2023-04-27T09:27:58;3.38;;;2.58;;
62584;SDS011;48643;51.670;5.808;2023-04-27T09:30:26;4.38;;;2.97;;
62584;SDS011;48643;51.670;5.808;2023-04-27T09:32:57;8.25;;;5.85;;
62584;SDS011;48643;51.670;5.808;2023-04-27T09:35:27;8.93;;;6.70;;
62584;SDS011;48643;51.670;5.808;2023-04-27T09:37:55;25.63;;;19.27;;
62584;SDS011;48643;51.670;5.808;2023-04-27T09:40:23;21.80;;;16.33;;
62584;SDS011;48643;51.670;5.808;2023-04-27T09:42:56;18.30;;;2.60;;
62584;SDS011;48643;51.670;5.808;2023-04-27T09:45:26;10.70;;;3.00;;
62584;SDS011;48643;51.670;5.808;2023-04-27T09:47:53;12.05;;;3.40;;
62584;SDS011;48643;51.670;5.808;2023-04-27T09:50:20;22.23;;;3.55;;
62584;SDS011;48643;51.670;5.808;2023-04-27T09:52:47;6.72;;;3.00;;
62584;SDS011;48643;51.670;5.808;2023-04-27T09:55:16;9.15;;;2.42;;
62584;SDS011;48643;51.670;5.808;2023-04-27T09:57:57;6.05;;;2.80;;
62584;SDS011;48643;51.670;5.808;2023-04-27T10:00:56;5.35;;;2.85;;
62584;SDS011;48643;51.670;5.808;2023-04-27T10:03:56;13.38;;;9.20;;
62584;SDS011;48643;51.670;5.808;2023-04-27T10:09:18;8.00;;;2.80;;
62584;SDS011;48643;51.670;5.808;2023-04-27T10:11:49;7.72;;;2.50;;
62584;SDS011;48643;51.670;5.808;2023-04-27T10:14:18;7.22;;;2.63;;
62584;SDS011;48643;51.670;5.808;2023-04-27T10:16:52;11.13;;;2.90;;
62584;SDS011;48643;51.670;5.808;2023-04-27T10:19:23;8.05;;;2.45;;
62584;SDS011;48643;51.670;5.808;2023-04-27T10:21:51;10.07;;;2.65;;
62584;SDS011;48643;51.670;5.808;2023-04-27T10:24:39;3.92;;;2.10;;
62584;SDS011;48643;51.670;5.808;2023-04-27T10:27:07;4.05;;;2.25;;
62584;SDS011;48643;51.670;5.808;2023-04-27T10:29:37;4.57;;;2.13;;
62584;SDS011;48643;51.670;5.808;2023-04-27T10:32:06;6.93;;;2.17;;
62584;SDS011;48643;51.670;5.808;2023-04-27T10:34:37;4.82;;;2.30;;
62584;SDS011;48643;51.670;5.808;2023-04-27T10:37:08;4.75;;;2.13;;
62584;SDS011;48643;51.670;5.808;2023-04-27T10:39:37;6.00;;;2.70;;
62584;SDS011;48643;51.670;5.808;2023-04-27T10:42:24;7.82;;;2.45;;
62584;SDS011;48643;51.670;5.808;2023-04-27T10:44:57;9.30;;;2.40;;
62584;SDS011;48643;51.670;5.808;2023-04-27T10:47:34;5.28;;;2.30;;
62584;SDS011;48643;51.670;5.808;2023-04-27T10:50:15;4.55;;;2.10;;
62584;SDS011;48643;51.670;5.808;2023-04-27T10:52:44;7.40;;;2.33;;
62584;SDS011;48643;51.670;5.808;2023-04-27T10:55:15;4.45;;;2.15;;
62584;SDS011;48643;51.670;5.808;2023-04-27T10:57:49;8.75;;;2.63;;
62584;SDS011;48643;51.670;5.808;2023-04-27T11:00:24;11.38;;;2.70;;
62584;SDS011;48643;51.670;5.808;2023-04-27T11:02:53;5.65;;;3.38;;
62584;SDS011;48643;51.670;5.808;2023-04-27T11:05:23;3.78;;;2.65;;
62584;SDS011;48643;51.670;5.808;2023-04-27T11:07:51;3.92;;;2.00;;
62584;SDS011;48643;51.670;5.808;2023-04-27T11:10:18;6.80;;;2.40;;
62584;SDS011;48643;51.670;5.808;2023-04-27T11:12:46;3.83;;;2.10;;
62584;SDS011;48643;51.670;5.808;2023-04-27T11:15:14;4.13;;;2.00;;
62584;SDS011;48643;51.670;5.808;2023-04-27T11:17:41;3.00;;;2.10;;
62584;SDS011;48643;51.670;5.808;2023-04-27T11:20:08;11.15;;;2.42;;
62584;SDS011;48643;51.670;5.808;2023-04-27T11:22:43;8.73;;;2.22;;
62584;SDS011;48643;51.670;5.808;2023-04-27T11:25:11;4.75;;;2.40;;
62584;SDS011;48643;51.670;5.808;2023-04-27T11:27:39;4.00;;;2.00;;
62584;SDS011;48643;51.670;5.808;2023-04-27T11:30:17;6.15;;;2.20;;
62584;SDS011;48643;51.670;5.808;2023-04-27T11:32:47;6.30;;;2.40;;
62584;SDS011;48643;51.670;5.808;2023-04-27T11:35:14;7.70;;;2.20;;
62584;SDS011;48643;51.670;5.808;2023-04-27T11:37:43;5.70;;;2.35;;
62584;SDS011;48643;51.670;5.808;2023-04-27T11:40:12;5.00;;;2.47;;
62584;SDS011;48643;51.670;5.808;2023-04-27T11:42:39;6.72;;;2.63;;
62584;SDS011;48643;51.670;5.808;2023-04-27T11:45:12;7.25;;;2.40;;
62584;SDS011;48643;51.670;5.808;2023-04-27T11:47:44;7.38;;;2.13;;
62584;SDS011;48643;51.670;5.808;2023-04-27T11:50:12;6.68;;;2.30;;
62584;SDS011;48643;51.670;5.808;2023-04-27T11:52:40;5.20;;;2.15;;
62584;SDS011;48643;51.670;5.808;2023-04-27T11:55:07;7.07;;;2.40;;
62584;SDS011;48643;51.670;5.808;2023-04-27T11:57:41;7.95;;;2.30;;
62584;SDS011;48643;51.670;5.808;2023-04-27T12:00:08;4.43;;;2.30;;
62584;SDS011;48643;51.670;5.808;2023-04-27T12:02:40;4.63;;;2.20;;
62584;SDS011;48643;51.670;5.808;2023-04-27T12:05:09;3.35;;;2.20;;
62584;SDS011;48643;51.670;5.808;2023-04-27T12:07:38;5.00;;;2.33;;
62584;SDS011;48643;51.670;5.808;2023-04-27T12:10:06;5.30;;;2.20;;
62584;SDS011;48643;51.670;5.808;2023-04-27T12:12:34;4.13;;;2.30;;
62584;SDS011;48643;51.670;5.808;2023-04-27T12:15:01;2.90;;;2.10;;
62584;SDS011;48643;51.670;5.808;2023-04-27T12:17:30;5.68;;;2.33;;
62584;SDS011;48643;51.670;5.808;2023-04-27T12:19:58;3.63;;;2.23;;
62584;SDS011;48643;51.670;5.808;2023-04-27T12:22:25;4.20;;;2.30;;
62584;SDS011;48643;51.670;5.808;2023-04-27T12:24:53;2.50;;;2.20;;
62584;SDS011;48643;51.670;5.808;2023-04-27T12:27:21;6.28;;;2.45;;
62584;SDS011;48643;51.670;5.808;2023-04-27T12:29:48;3.30;;;2.20;;
62584;SDS011;48643;51.670;5.808;2023-04-27T12:32:16;3.78;;;2.58;;
62584;SDS011;48643;51.670;5.808;2023-04-27T12:34:43;3.60;;;2.13;;
62584;SDS011;48643;51.670;5.808;2023-04-27T12:37:10;5.15;;;2.30;;
62584;SDS011;48643;51.670;5.808;2023-04-27T12:39:38;6.77;;;2.20;;
62584;SDS011;48643;51.670;5.808;2023-04-27T12:42:05;3.60;;;2.40;;
62584;SDS011;48643;51.670;5.808;2023-04-27T12:44:33;3.35;;;2.40;;
62584;SDS011;48643;51.670;5.808;2023-04-27T12:47:00;4.22;;;2.30;;
62584;SDS011;48643;51.670;5.808;2023-04-27T12:49:27;5.95;;;2.40;;
62584;SDS011;48643;51.670;5.808;2023-04-27T12:51:54;5.38;;;2.60;;
62584;SDS011;48643;51.670;5.808;2023-04-27T12:54:22;5.40;;;2.10;;
62584;SDS011;48643;51.670;5.808;2023-04-27T12:56:49;6.45;;;2.25;;
62584;SDS011;48643;51.670;5.808;2023-04-27T12:59:17;3.30;;;2.08;;
62584;SDS011;48643;51.670;5.808;2023-04-27T13:01:44;3.50;;;2.20;;
62584;SDS011;48643;51.670;5.808;2023-04-27T13:04:16;5.95;;;2.28;;
62584;SDS011;48643;51.670;5.808;2023-04-27T13:06:46;2.88;;;2.15;;
62584;SDS011;48643;51.670;5.808;2023-04-27T13:09:14;3.15;;;2.10;;
62584;SDS011;48643;51.670;5.808;2023-04-27T13:11:41;4.77;;;2.30;;
62584;SDS011;48643;51.670;5.808;2023-04-27T13:14:09;3.63;;;2.20;;
62584;SDS011;48643;51.670;5.808;2023-04-27T13:19:05;3.58;;;2.30;;
62584;SDS011;48643;51.670;5.808;2023-04-27T13:21:33;4.03;;;2.23;;
62584;SDS011;48643;51.670;5.808;2023-04-27T13:24:00;7.03;;;2.47;;
62584;SDS011;48643;51.670;5.808;2023-04-27T13:26:27;4.20;;;2.03;;
62584;SDS011;48643;51.670;5.808;2023-04-27T13:28:55;2.60;;;1.90;;
62584;SDS011;48643;51.670;5.808;2023-04-27T13:31:22;4.30;;;2.10;;
62584;SDS011;48643;51.670;5.808;2023-04-27T13:33:49;3.47;;;2.30;;
62584;SDS011;48643;51.670;5.808;2023-04-27T13:36:16;5.57;;;2.30;;
62584;SDS011;48643;51.670;5.808;2023-04-27T13:38:43;4.20;;;2.33;;
62584;SDS011;48643;51.670;5.808;2023-04-27T13:41:11;5.28;;;2.40;;
62584;SDS011;48643;51.670;5.808;2023-04-27T13:43:37;4.15;;;2.20;;
62584;SDS011;48643;51.670;5.808;2023-04-27T13:46:04;2.75;;;2.30;;
62584;SDS011;48643;51.670;5.808;2023-04-27T13:48:31;4.07;;;2.35;;
62584;SDS011;48643;51.670;5.808;2023-04-27T13:50:58;4.13;;;2.20;;
62584;SDS011;48643;51.670;5.808;2023-04-27T13:53:25;3.42;;;2.00;;
62584;SDS011;48643;51.670;5.808;2023-04-27T13:55:52;2.80;;;2.20;;
62584;SDS011;48643;51.670;5.808;2023-04-27T13:58:22;3.40;;;2.10;;
62584;SDS011;48643;51.670;5.808;2023-04-27T14:00:51;3.58;;;2.40;;
62584;SDS011;48643;51.670;5.808;2023-04-27T14:03:19;5.25;;;2.45;;
62584;SDS011;48643;51.670;5.808;2023-04-27T14:05:48;3.92;;;2.20;;
62584;SDS011;48643;51.670;5.808;2023-04-27T14:08:16;11.98;;;2.65;;
62584;SDS011;48643;51.670;5.808;2023-04-27T14:10:44;5.60;;;2.30;;
62584;SDS011;48643;51.670;5.808;2023-04-27T14:13:11;4.55;;;2.30;;
62584;SDS011;48643;51.670;5.808;2023-04-27T14:15:39;5.15;;;2.30;;
62584;SDS011;48643;51.670;5.808;2023-04-27T14:18:06;3.70;;;2.00;;
62584;SDS011;48643;51.670;5.808;2023-04-27T14:20:34;4.07;;;2.20;;
62584;SDS011;48643;51.670;5.808;2023-04-27T14:23:02;4.10;;;1.98;;
62584;SDS011;48643;51.670;5.808;2023-04-27T14:25:30;3.42;;;2.08;;
62584;SDS011;48643;51.670;5.808;2023-04-27T14:28:01;4.05;;;2.15;;
62584;SDS011;48643;51.670;5.808;2023-04-27T14:30:32;4.05;;;2.38;;
62584;SDS011;48643;51.670;5.808;2023-04-27T14:33:00;3.22;;;2.08;;
62584;SDS011;48643;51.670;5.808;2023-04-27T14:35:28;5.53;;;2.20;;
62584;SDS011;48643;51.670;5.808;2023-04-27T14:37:55;2.72;;;2.10;;
62584;SDS011;48643;51.670;5.808;2023-04-27T14:40:27;4.65;;;2.30;;
62584;SDS011;48643;51.670;5.808;2023-04-27T14:42:58;4.15;;;2.30;;
62584;SDS011;48643;51.670;5.808;2023-04-27T14:45:25;3.17;;;2.22;;
62584;SDS011;48643;51.670;5.808;2023-04-27T14:48:05;3.15;;;2.20;;
62584;SDS011;48643;51.670;5.808;2023-04-27T14:50:32;4.18;;;2.22;;
62584;SDS011;48643;51.670;5.808;2023-04-27T14:52:59;4.35;;;2.60;;
62584;SDS011;48643;51.670;5.808;2023-04-27T14:55:26;4.03;;;2.38;;
62584;SDS011;48643;51.670;5.808;2023-04-27T14:57:53;4.43;;;2.40;;
62584;SDS011;48643;51.670;5.808;2023-04-27T15:00:20;4.93;;;2.70;;
62584;SDS011;48643;51.670;5.808;2023-04-27T15:02:47;3.42;;;2.38;;